sensor_id;sensor_type;location;lat;lon;timestamp;pressure;altitude;pressure_sealevel;temperature;humidity
10462;BME280;5278;42.656;23.374;2023-03-30T00:00:59;95146.38;;;8.11;44.57
10462;BME280;5278;42.656;23.374;2023-03-30T00:03:27;95143.94;;;8.09;44.97
10462;BME280;5278;42.656;23.374;2023-03-30T00:05:54;95142.09;;;8.02;45.24
10462;BME280;5278;42.656;23.374;2023-03-30T00:08:24;95150.50;;;8.04;45.40
10462;BME280;5278;42.656;23.374;2023-03-30T00:10:53;95135.28;;;8.01;45.18
10462;BME280;5278;42.656;23.374;2023-03-30T00:13:24;95132.97;;;7.98;45.40
10462;BME280;5278;42.656;23.374;2023-03-30T00:15:51;95136.91;;;8.02;45.46
10462;BME280;5278;42.656;23.374;2023-03-30T00:18:19;95124.34;;;8.07;45.35
10462;BME280;5278;42.656;23.374;2023-03-30T00:20:47;95129.22;;;8.10;44.90
10462;BME280;5278;42.656;23.374;2023-03-30T00:23:15;95127.28;;;8.12;45.26
10462;BME280;5278;42.656;23.374;2023-03-30T00:25:43;95073.91;;;7.75;45.03
10462;BME280;5278;42.656;23.374;2023-03-30T00:28:10;95128.25;;;8.11;45.35
10462;BME280;5278;42.656;23.374;2023-03-30T00:30:37;95132.44;;;8.12;45.21
10462;BME280;5278;42.656;23.374;2023-03-30T00:33:04;95143.69;;;8.03;45.41
10462;BME280;5278;42.656;23.374;2023-03-30T00:35:31;95129.53;;;8.07;45.46
10462;BME280;5278;42.656;23.374;2023-03-30T00:38:00;95137.28;;;8.07;45.93
10462;BME280;5278;42.656;23.374;2023-03-30T00:40:29;95140.44;;;8.01;46.30
10462;BME280;5278;42.656;23.374;2023-03-30T00:42:59;95130.91;;;8.01;46.88
10462;BME280;5278;42.656;23.374;2023-03-30T00:45:27;95124.69;;;7.94;46.86
10462;BME280;5278;42.656;23.374;2023-03-30T00:47:58;95134.28;;;7.84;47.64
10462;BME280;5278;42.656;23.374;2023-03-30T00:50:29;95135.28;;;7.73;49.20
10462;BME280;5278;42.656;23.374;2023-03-30T00:53:01;95137.22;;;7.71;49.69
10462;BME280;5278;42.656;23.374;2023-03-30T00:55:32;95129.50;;;7.62;50.08
10462;BME280;5278;42.656;23.374;2023-03-30T00:58:04;95136.44;;;7.61;50.56
10462;BME280;5278;42.656;23.374;2023-03-30T01:00:34;95135.19;;;7.65;50.84
10462;BME280;5278;42.656;23.374;2023-03-30T01:03:05;95120.56;;;7.56;50.65
10462;BME280;5278;42.656;23.374;2023-03-30T01:05:37;95126.94;;;7.62;51.40
10462;BME280;5278;42.656;23.374;2023-03-30T01:08:04;95135.19;;;7.65;51.31
10462;BME280;5278;42.656;23.374;2023-03-30T01:10:32;95134.69;;;7.62;51.69
10462;BME280;5278;42.656;23.374;2023-03-30T01:12:59;95134.03;;;7.50;51.86
10462;BME280;5278;42.656;23.374;2023-03-30T01:15:31;95135.00;;;7.49;52.18
10462;BME280;5278;42.656;23.374;2023-03-30T01:18:08;95135.28;;;7.46;52.34
10462;BME280;5278;42.656;23.374;2023-03-30T01:21:20;95120.22;;;7.42;52.52
10462;BME280;5278;42.656;23.374;2023-03-30T01:24:17;95140.47;;;7.46;52.53
10462;BME280;5278;42.656;23.374;2023-03-30T01:26:50;95134.19;;;7.49;52.49
10462;BME280;5278;42.656;23.374;2023-03-30T01:29:27;95149.81;;;7.47;52.64
10462;BME280;5278;42.656;23.374;2023-03-30T01:35:18;95144.53;;;7.49;52.20
10462;BME280;5278;42.656;23.374;2023-03-30T01:38:25;95146.97;;;7.50;52.00
10462;BME280;5278;42.656;23.374;2023-03-30T01:41:08;95150.91;;;7.54;50.96
10462;BME280;5278;42.656;23.374;2023-03-30T01:43:44;95150.59;;;7.57;51.33
10462;BME280;5278;42.656;23.374;2023-03-30T01:46:18;95153.78;;;7.51;51.18
10462;BME280;5278;42.656;23.374;2023-03-30T01:48:55;95143.66;;;7.58;50.71
10462;BME280;5278;42.656;23.374;2023-03-30T01:51:27;95137.41;;;7.60;50.80
10462;BME280;5278;42.656;23.374;2023-03-30T01:54:00;95132.50;;;7.57;50.55
10462;BME280;5278;42.656;23.374;2023-03-30T01:56:33;95140.47;;;7.46;50.83
10462;BME280;5278;42.656;23.374;2023-03-30T01:59:04;95140.34;;;7.38;51.14
10462;BME280;5278;42.656;23.374;2023-03-30T02:01:33;95139.13;;;7.42;50.95
10462;BME280;5278;42.656;23.374;2023-03-30T02:04:03;95149.06;;;7.37;51.72
10462;BME280;5278;42.656;23.374;2023-03-30T02:06:35;95155.47;;;7.33;52.09
10462;BME280;5278;42.656;23.374;2023-03-30T02:09:06;95149.50;;;7.23;53.04
10462;BME280;5278;42.656;23.374;2023-03-30T02:11:37;95146.28;;;7.21;53.69
10462;BME280;5278;42.656;23.374;2023-03-30T02:14:07;95148.56;;;7.24;53.32
10462;BME280;5278;42.656;23.374;2023-03-30T02:16:38;95153.72;;;7.24;53.15
10462;BME280;5278;42.656;23.374;2023-03-30T02:19:07;95144.34;;;7.23;53.49
10462;BME280;5278;42.656;23.374;2023-03-30T02:21:34;95146.91;;;7.23;53.42
10462;BME280;5278;42.656;23.374;2023-03-30T02:24:04;95142.97;;;7.28;53.62
10462;BME280;5278;42.656;23.374;2023-03-30T02:26:35;95153.69;;;7.33;53.89
10462;BME280;5278;42.656;23.374;2023-03-30T02:29:02;95154.25;;;7.37;53.92
10462;BME280;5278;42.656;23.374;2023-03-30T02:31:30;95146.19;;;7.40;54.26
10462;BME280;5278;42.656;23.374;2023-03-30T02:34:07;95160.50;;;7.34;54.75
10462;BME280;5278;42.656;23.374;2023-03-30T02:36:56;95151.81;;;7.26;55.40
10462;BME280;5278;42.656;23.374;2023-03-30T02:39:34;95152.41;;;7.10;56.50
10462;BME280;5278;42.656;23.374;2023-03-30T02:42:26;95163.81;;;7.08;56.88
10462;BME280;5278;42.656;23.374;2023-03-30T02:45:11;95162.88;;;7.09;57.00
10462;BME280;5278;42.656;23.374;2023-03-30T02:47:47;95160.59;;;7.06;57.37
10462;BME280;5278;42.656;23.374;2023-03-30T02:50:24;95164.13;;;7.05;58.44
10462;BME280;5278;42.656;23.374;2023-03-30T02:52:58;95164.00;;;6.97;59.83
10462;BME280;5278;42.656;23.374;2023-03-30T02:55:32;95170.22;;;7.04;60.28
10462;BME280;5278;42.656;23.374;2023-03-30T02:58:07;95170.50;;;7.10;60.44
10462;BME280;5278;42.656;23.374;2023-03-30T03:00:41;95169.13;;;7.16;61.20
10462;BME280;5278;42.656;23.374;2023-03-30T03:03:16;95162.03;;;7.18;61.66
10462;BME280;5278;42.656;23.374;2023-03-30T03:05:45;95176.72;;;7.17;61.90
10462;BME280;5278;42.656;23.374;2023-03-30T03:08:14;95137.78;;;6.91;62.64
10462;BME280;5278;42.656;23.374;2023-03-30T03:10:41;95176.47;;;7.20;62.96
10462;BME280;5278;42.656;23.374;2023-03-30T03:13:09;95171.00;;;7.23;63.45
10462;BME280;5278;42.656;23.374;2023-03-30T03:15:38;95181.19;;;7.25;63.60
10462;BME280;5278;42.656;23.374;2023-03-30T03:18:05;95180.91;;;7.28;63.96
10462;BME280;5278;42.656;23.374;2023-03-30T03:20:32;95173.03;;;7.29;64.02
10462;BME280;5278;42.656;23.374;2023-03-30T03:22:59;95182.16;;;7.24;64.36
10462;BME280;5278;42.656;23.374;2023-03-30T03:25:26;95117.28;;;6.80;64.77
10462;BME280;5278;42.656;23.374;2023-03-30T03:27:53;95183.00;;;7.15;65.47
10462;BME280;5278;42.656;23.374;2023-03-30T03:30:22;95173.50;;;7.06;65.94
10462;BME280;5278;42.656;23.374;2023-03-30T03:32:49;95178.94;;;7.03;66.73
10462;BME280;5278;42.656;23.374;2023-03-30T03:35:15;95185.50;;;6.97;67.03
10462;BME280;5278;42.656;23.374;2023-03-30T03:37:44;95188.84;;;6.98;67.50
10462;BME280;5278;42.656;23.374;2023-03-30T03:40:11;95192.69;;;6.93;67.89
10462;BME280;5278;42.656;23.374;2023-03-30T03:42:38;95181.53;;;6.93;68.36
10462;BME280;5278;42.656;23.374;2023-03-30T03:45:05;95195.56;;;6.90;68.62
10462;BME280;5278;42.656;23.374;2023-03-30T03:47:34;95195.16;;;6.85;69.04
10462;BME280;5278;42.656;23.374;2023-03-30T03:50:01;95204.53;;;6.86;69.40
10462;BME280;5278;42.656;23.374;2023-03-30T03:52:31;95169.19;;;6.58;70.38
10462;BME280;5278;42.656;23.374;2023-03-30T03:54:58;95203.97;;;6.73;70.71
10462;BME280;5278;42.656;23.374;2023-03-30T03:57:25;95205.63;;;6.74;71.40
10462;BME280;5278;42.656;23.374;2023-03-30T03:59:52;95208.06;;;6.66;71.82
10462;BME280;5278;42.656;23.374;2023-03-30T04:02:21;95221.38;;;6.62;72.65
10462;BME280;5278;42.656;23.374;2023-03-30T04:04:50;95214.31;;;6.64;72.68
10462;BME280;5278;42.656;23.374;2023-03-30T04:07:17;95210.09;;;6.63;72.85
10462;BME280;5278;42.656;23.374;2023-03-30T04:09:46;95212.53;;;6.64;73.24
10462;BME280;5278;42.656;23.374;2023-03-30T04:12:12;95211.06;;;6.62;73.81
10462;BME280;5278;42.656;23.374;2023-03-30T04:14:40;95208.19;;;6.55;74.19
10462;BME280;5278;42.656;23.374;2023-03-30T04:17:06;95208.59;;;6.51;74.60
10462;BME280;5278;42.656;23.374;2023-03-30T04:19:34;95208.47;;;6.52;74.77
10462;BME280;5278;42.656;23.374;2023-03-30T04:22:02;95205.06;;;6.52;74.97
10462;BME280;5278;42.656;23.374;2023-03-30T04:24:30;95202.50;;;6.52;75.25
10462;BME280;5278;42.656;23.374;2023-03-30T04:27:00;95205.63;;;6.55;75.24
10462;BME280;5278;42.656;23.374;2023-03-30T04:29:27;95216.06;;;6.63;74.73
10462;BME280;5278;42.656;23.374;2023-03-30T04:31:55;95200.72;;;6.71;74.88
10462;BME280;5278;42.656;23.374;2023-03-30T04:34:27;95214.31;;;6.73;74.52
10462;BME280;5278;42.656;23.374;2023-03-30T04:36:55;95210.22;;;6.80;74.39
10462;BME280;5278;42.656;23.374;2023-03-30T04:39:24;95204.94;;;6.82;73.81
10462;BME280;5278;42.656;23.374;2023-03-30T04:41:54;95206.13;;;6.87;73.60
10462;BME280;5278;42.656;23.374;2023-03-30T04:44:21;95208.47;;;6.90;72.94
10462;BME280;5278;42.656;23.374;2023-03-30T04:46:48;95209.69;;;6.86;73.17
10462;BME280;5278;42.656;23.374;2023-03-30T04:49:15;95222.19;;;6.91;72.97
10462;BME280;5278;42.656;23.374;2023-03-30T04:51:42;95211.84;;;6.91;72.52
10462;BME280;5278;42.656;23.374;2023-03-30T04:54:09;95219.59;;;7.01;72.02
10462;BME280;5278;42.656;23.374;2023-03-30T04:56:39;95219.44;;;6.92;72.13
10462;BME280;5278;42.656;23.374;2023-03-30T04:59:06;95215.53;;;6.88;72.47
10462;BME280;5278;42.656;23.374;2023-03-30T05:01:33;95218.25;;;6.97;72.29
10462;BME280;5278;42.656;23.374;2023-03-30T05:04:00;95220.53;;;7.09;71.89
10462;BME280;5278;42.656;23.374;2023-03-30T05:06:27;95229.78;;;7.12;71.51
10462;BME280;5278;42.656;23.374;2023-03-30T05:08:54;95231.56;;;7.11;73.16
10462;BME280;5278;42.656;23.374;2023-03-30T05:11:20;95218.63;;;7.11;71.51
10462;BME280;5278;42.656;23.374;2023-03-30T05:13:51;95229.50;;;7.15;71.29
10462;BME280;5278;42.656;23.374;2023-03-30T05:16:18;95223.63;;;7.13;72.07
10462;BME280;5278;42.656;23.374;2023-03-30T05:18:46;95221.31;;;7.19;71.14
10462;BME280;5278;42.656;23.374;2023-03-30T05:21:13;95228.38;;;7.17;71.07
10462;BME280;5278;42.656;23.374;2023-03-30T05:23:40;95233.03;;;7.14;72.19
10462;BME280;5278;42.656;23.374;2023-03-30T05:26:08;95224.34;;;7.15;73.14
10462;BME280;5278;42.656;23.374;2023-03-30T05:28:35;95227.31;;;7.20;72.97
10462;BME280;5278;42.656;23.374;2023-03-30T05:31:04;95225.81;;;7.27;72.21
10462;BME280;5278;42.656;23.374;2023-03-30T05:33:31;95232.72;;;7.36;71.57
10462;BME280;5278;42.656;23.374;2023-03-30T05:35:57;95222.78;;;7.41;71.78
10462;BME280;5278;42.656;23.374;2023-03-30T05:38:24;95219.44;;;7.58;70.96
10462;BME280;5278;42.656;23.374;2023-03-30T05:40:52;95215.19;;;7.76;69.71
10462;BME280;5278;42.656;23.374;2023-03-30T05:43:21;95184.91;;;7.59;68.98
10462;BME280;5278;42.656;23.374;2023-03-30T05:45:48;95205.41;;;7.70;68.94
10462;BME280;5278;42.656;23.374;2023-03-30T05:48:16;95226.91;;;7.98;68.76
10462;BME280;5278;42.656;23.374;2023-03-30T05:50:43;95236.56;;;8.06;68.56
10462;BME280;5278;42.656;23.374;2023-03-30T05:53:11;95236.66;;;8.14;68.00
10462;BME280;5278;42.656;23.374;2023-03-30T05:55:37;95240.94;;;8.23;67.74
10462;BME280;5278;42.656;23.374;2023-03-30T05:58:05;95232.22;;;8.24;67.37
10462;BME280;5278;42.656;23.374;2023-03-30T06:00:32;95219.25;;;8.06;68.04
10462;BME280;5278;42.656;23.374;2023-03-30T06:03:01;95240.00;;;8.24;69.00
10462;BME280;5278;42.656;23.374;2023-03-30T06:05:30;95242.44;;;8.26;69.50
10462;BME280;5278;42.656;23.374;2023-03-30T06:07:59;95239.59;;;8.19;70.63
10462;BME280;5278;42.656;23.374;2023-03-30T06:10:26;95224.28;;;8.08;71.53
10462;BME280;5278;42.656;23.374;2023-03-30T06:12:53;95254.28;;;8.28;71.19
10462;BME280;5278;42.656;23.374;2023-03-30T06:15:20;95255.22;;;8.27;71.28
10462;BME280;5278;42.656;23.374;2023-03-30T06:17:47;95264.81;;;8.17;71.65
10462;BME280;5278;42.656;23.374;2023-03-30T06:20:14;95257.78;;;8.09;72.10
10462;BME280;5278;42.656;23.374;2023-03-30T06:22:43;95256.38;;;8.15;72.66
10462;BME280;5278;42.656;23.374;2023-03-30T06:25:09;95260.69;;;8.24;72.18
10462;BME280;5278;42.656;23.374;2023-03-30T06:27:38;95264.63;;;8.28;71.46
10462;BME280;5278;42.656;23.374;2023-03-30T06:30:06;95259.72;;;8.35;71.67
10462;BME280;5278;42.656;23.374;2023-03-30T06:32:34;95281.91;;;8.37;70.13
10462;BME280;5278;42.656;23.374;2023-03-30T06:35:01;95261.00;;;8.21;70.75
10462;BME280;5278;42.656;23.374;2023-03-30T06:37:29;95264.25;;;8.23;71.11
10462;BME280;5278;42.656;23.374;2023-03-30T06:39:58;95259.84;;;8.33;70.61
10462;BME280;5278;42.656;23.374;2023-03-30T06:42:25;95260.34;;;9.17;91.27
10462;BME280;5278;42.656;23.374;2023-03-30T06:44:53;95256.81;;;11.77;84.69
10462;BME280;5278;42.656;23.374;2023-03-30T06:47:20;95252.09;;;13.20;62.79
10462;BME280;5278;42.656;23.374;2023-03-30T06:49:48;95247.91;;;14.15;53.52
10462;BME280;5278;42.656;23.374;2023-03-30T06:52:16;95248.03;;;15.29;50.18
10462;BME280;5278;42.656;23.374;2023-03-30T06:54:43;95246.00;;;16.02;44.92
10462;BME280;5278;42.656;23.374;2023-03-30T06:57:11;95254.69;;;16.77;42.59
10462;BME280;5278;42.656;23.374;2023-03-30T06:59:38;95251.19;;;17.44;52.13
10462;BME280;5278;42.656;23.374;2023-03-30T07:02:05;95245.47;;;18.39;48.30
10462;BME280;5278;42.656;23.374;2023-03-30T07:04:32;95250.94;;;18.96;44.88
10462;BME280;5278;42.656;23.374;2023-03-30T07:07:00;95249.38;;;19.57;41.45
10462;BME280;5278;42.656;23.374;2023-03-30T07:09:27;95248.63;;;20.00;39.65
10462;BME280;5278;42.656;23.374;2023-03-30T07:11:54;95247.69;;;20.37;38.01
10462;BME280;5278;42.656;23.374;2023-03-30T07:14:23;95249.13;;;20.70;36.31
10462;BME280;5278;42.656;23.374;2023-03-30T07:16:50;95248.81;;;20.96;35.73
10462;BME280;5278;42.656;23.374;2023-03-30T07:19:17;95245.50;;;21.00;35.00
10462;BME280;5278;42.656;23.374;2023-03-30T07:21:44;95244.00;;;21.23;34.42
10462;BME280;5278;42.656;23.374;2023-03-30T07:24:11;95246.34;;;21.31;33.68
10462;BME280;5278;42.656;23.374;2023-03-30T07:26:38;95248.66;;;20.73;31.52
10462;BME280;5278;42.656;23.374;2023-03-30T07:29:04;95257.31;;;19.82;31.93
10462;BME280;5278;42.656;23.374;2023-03-30T07:31:33;95252.78;;;18.88;33.12
10462;BME280;5278;42.656;23.374;2023-03-30T07:34:01;95271.88;;;17.87;34.73
10462;BME280;5278;42.656;23.374;2023-03-30T07:36:28;95255.81;;;17.23;35.82
10462;BME280;5278;42.656;23.374;2023-03-30T07:38:56;95264.94;;;16.66;36.54
10462;BME280;5278;42.656;23.374;2023-03-30T07:41:24;95254.00;;;16.21;37.84
10462;BME280;5278;42.656;23.374;2023-03-30T07:43:50;95263.97;;;16.05;38.33
10462;BME280;5278;42.656;23.374;2023-03-30T07:46:18;95276.38;;;15.89;38.69
10462;BME280;5278;42.656;23.374;2023-03-30T07:48:46;95259.16;;;15.74;39.00
10462;BME280;5278;42.656;23.374;2023-03-30T07:51:13;95266.09;;;15.88;38.98
10462;BME280;5278;42.656;23.374;2023-03-30T07:53:40;95258.00;;;16.17;38.45
10462;BME280;5278;42.656;23.374;2023-03-30T07:56:09;95252.47;;;16.33;37.91
10462;BME280;5278;42.656;23.374;2023-03-30T07:58:36;95249.47;;;16.91;37.13
10462;BME280;5278;42.656;23.374;2023-03-30T08:01:03;95258.50;;;17.69;35.95
10462;BME280;5278;42.656;23.374;2023-03-30T08:03:30;95248.31;;;18.38;34.32
10462;BME280;5278;42.656;23.374;2023-03-30T08:06:02;95241.09;;;19.16;32.97
10462;BME280;5278;42.656;23.374;2023-03-30T08:08:30;95243.94;;;19.52;32.12
10462;BME280;5278;42.656;23.374;2023-03-30T08:10:58;95251.31;;;19.37;32.18
10462;BME280;5278;42.656;23.374;2023-03-30T08:13:25;95238.66;;;19.21;32.47
10462;BME280;5278;42.656;23.374;2023-03-30T08:15:52;95243.72;;;19.54;32.16
10462;BME280;5278;42.656;23.374;2023-03-30T08:18:20;95245.28;;;19.61;31.99
10462;BME280;5278;42.656;23.374;2023-03-30T08:20:49;95241.38;;;20.13;30.91
10462;BME280;5278;42.656;23.374;2023-03-30T08:23:18;95230.69;;;20.27;30.33
10462;BME280;5278;42.656;23.374;2023-03-30T08:25:45;95232.72;;;20.06;30.94
10462;BME280;5278;42.656;23.374;2023-03-30T08:28:17;95231.72;;;20.07;31.01
10462;BME280;5278;42.656;23.374;2023-03-30T08:30:44;95238.66;;;20.02;30.97
10462;BME280;5278;42.656;23.374;2023-03-30T08:33:12;95229.56;;;19.73;30.91
10462;BME280;5278;42.656;23.374;2023-03-30T08:35:40;95235.66;;;19.73;31.62
10462;BME280;5278;42.656;23.374;2023-03-30T08:38:09;95233.09;;;19.67;31.34
10462;BME280;5278;42.656;23.374;2023-03-30T08:40:40;95231.34;;;20.22;30.76
10462;BME280;5278;42.656;23.374;2023-03-30T08:43:32;95227.09;;;21.24;29.57
10462;BME280;5278;42.656;23.374;2023-03-30T08:46:03;95222.84;;;22.46;27.28
10462;BME280;5278;42.656;23.374;2023-03-30T08:48:31;95226.72;;;23.35;26.60
10462;BME280;5278;42.656;23.374;2023-03-30T08:51:07;95218.19;;;23.94;25.80
10462;BME280;5278;42.656;23.374;2023-03-30T08:53:37;95222.06;;;24.42;25.02
10462;BME280;5278;42.656;23.374;2023-03-30T08:56:08;95213.41;;;24.90;24.20
10462;BME280;5278;42.656;23.374;2023-03-30T08:58:44;95219.44;;;25.34;23.99
10462;BME280;5278;42.656;23.374;2023-03-30T09:01:19;95199.84;;;25.72;23.10
10462;BME280;5278;42.656;23.374;2023-03-30T09:04:03;95199.28;;;25.65;23.10
10462;BME280;5278;42.656;23.374;2023-03-30T09:06:43;95201.56;;;25.03;22.96
10462;BME280;5278;42.656;23.374;2023-03-30T09:09:17;95188.59;;;25.11;22.98
10462;BME280;5278;42.656;23.374;2023-03-30T09:11:48;95174.16;;;25.93;22.62
10462;BME280;5278;42.656;23.374;2023-03-30T09:14:25;95178.91;;;26.80;21.19
10462;BME280;5278;42.656;23.374;2023-03-30T09:16:56;95183.38;;;28.17;20.27
10462;BME280;5278;42.656;23.374;2023-03-30T09:19:28;95175.34;;;27.97;19.86
10462;BME280;5278;42.656;23.374;2023-03-30T09:21:59;95187.97;;;26.79;20.97
10462;BME280;5278;42.656;23.374;2023-03-30T09:24:28;95179.22;;;26.31;21.09
10462;BME280;5278;42.656;23.374;2023-03-30T09:26:59;95176.34;;;25.64;22.16
10462;BME280;5278;42.656;23.374;2023-03-30T09:29:30;95175.13;;;25.18;22.55
10462;BME280;5278;42.656;23.374;2023-03-30T09:32:13;95179.66;;;24.96;22.64
10462;BME280;5278;42.656;23.374;2023-03-30T09:34:45;95173.06;;;25.25;22.81
10462;BME280;5278;42.656;23.374;2023-03-30T09:37:15;95159.69;;;26.78;21.68
10462;BME280;5278;42.656;23.374;2023-03-30T09:39:43;95151.31;;;27.72;20.41
10462;BME280;5278;42.656;23.374;2023-03-30T09:42:29;95149.19;;;27.69;20.43
10462;BME280;5278;42.656;23.374;2023-03-30T09:45:04;95152.25;;;26.80;20.69
10462;BME280;5278;42.656;23.374;2023-03-30T09:47:35;95152.75;;;26.20;21.06
10462;BME280;5278;42.656;23.374;2023-03-30T09:50:06;95148.72;;;25.70;21.51
10462;BME280;5278;42.656;23.374;2023-03-30T09:52:35;95143.06;;;25.66;21.63
10462;BME280;5278;42.656;23.374;2023-03-30T09:55:25;95145.91;;;26.29;21.25
10462;BME280;5278;42.656;23.374;2023-03-30T09:58:09;95136.91;;;27.63;19.81
10462;BME280;5278;42.656;23.374;2023-03-30T10:00:37;95137.63;;;28.24;18.91
10462;BME280;5278;42.656;23.374;2023-03-30T10:03:05;95131.44;;;28.39;18.72
10462;BME280;5278;42.656;23.374;2023-03-30T10:05:34;95134.69;;;28.15;18.83
10462;BME280;5278;42.656;23.374;2023-03-30T10:08:04;95133.69;;;27.56;18.93
10462;BME280;5278;42.656;23.374;2023-03-30T10:10:34;95129.41;;;27.29;19.51
10462;BME280;5278;42.656;23.374;2023-03-30T10:13:06;95134.72;;;27.19;20.00
10462;BME280;5278;42.656;23.374;2023-03-30T10:15:35;95128.53;;;26.88;20.19
10462;BME280;5278;42.656;23.374;2023-03-30T10:18:19;95133.63;;;26.28;20.63
10462;BME280;5278;42.656;23.374;2023-03-30T10:21:01;95140.09;;;25.58;21.26
10462;BME280;5278;42.656;23.374;2023-03-30T10:23:30;95102.34;;;25.02;21.98
10462;BME280;5278;42.656;23.374;2023-03-30T10:26:00;95129.94;;;24.48;22.18
10462;BME280;5278;42.656;23.374;2023-03-30T10:28:31;95122.00;;;24.31;22.22
10462;BME280;5278;42.656;23.374;2023-03-30T10:31:03;95108.50;;;25.08;22.06
10462;BME280;5278;42.656;23.374;2023-03-30T10:33:37;95115.94;;;24.79;22.16
10462;BME280;5278;42.656;23.374;2023-03-30T10:36:05;95096.03;;;23.94;22.55
10462;BME280;5278;42.656;23.374;2023-03-30T10:38:33;95115.31;;;24.07;22.97
10462;BME280;5278;42.656;23.374;2023-03-30T10:41:05;95118.63;;;24.35;22.87
10462;BME280;5278;42.656;23.374;2023-03-30T10:43:35;95111.72;;;24.34;22.81
10462;BME280;5278;42.656;23.374;2023-03-30T10:46:06;95104.31;;;24.63;22.13
10462;BME280;5278;42.656;23.374;2023-03-30T10:48:46;95110.56;;;24.74;22.56
10462;BME280;5278;42.656;23.374;2023-03-30T10:51:22;95114.25;;;24.08;23.03
10462;BME280;5278;42.656;23.374;2023-03-30T10:53:59;95110.72;;;23.13;23.79
10462;BME280;5278;42.656;23.374;2023-03-30T10:56:33;95112.94;;;22.60;24.83
10462;BME280;5278;42.656;23.374;2023-03-30T10:59:23;95098.47;;;22.51;24.76
10462;BME280;5278;42.656;23.374;2023-03-30T11:02:11;95094.38;;;22.31;24.93
10462;BME280;5278;42.656;23.374;2023-03-30T11:04:44;95096.75;;;21.70;25.53
10462;BME280;5278;42.656;23.374;2023-03-30T11:07:16;95092.53;;;20.92;26.57
10462;BME280;5278;42.656;23.374;2023-03-30T11:09:52;95092.22;;;20.59;27.11
10462;BME280;5278;42.656;23.374;2023-03-30T11:12:21;95094.44;;;20.62;26.81
10462;BME280;5278;42.656;23.374;2023-03-30T11:14:55;95090.44;;;20.83;26.94
10462;BME280;5278;42.656;23.374;2023-03-30T11:17:27;95078.25;;;21.35;26.32
10462;BME280;5278;42.656;23.374;2023-03-30T11:19:56;95075.94;;;21.97;25.72
10462;BME280;5278;42.656;23.374;2023-03-30T11:22:30;95082.75;;;22.61;25.02
10462;BME280;5278;42.656;23.374;2023-03-30T11:25:00;95046.78;;;22.08;25.18
10462;BME280;5278;42.656;23.374;2023-03-30T11:27:33;95068.00;;;21.97;25.09
10462;BME280;5278;42.656;23.374;2023-03-30T11:30:09;95069.34;;;22.67;24.59
10462;BME280;5278;42.656;23.374;2023-03-30T11:32:43;95055.97;;;22.74;24.63
10462;BME280;5278;42.656;23.374;2023-03-30T11:35:16;95045.38;;;23.07;24.58
10462;BME280;5278;42.656;23.374;2023-03-30T11:37:48;95035.50;;;23.75;23.56
10462;BME280;5278;42.656;23.374;2023-03-30T11:40:21;95032.94;;;23.80;23.43
10462;BME280;5278;42.656;23.374;2023-03-30T11:42:51;95029.66;;;23.94;23.21
10462;BME280;5278;42.656;23.374;2023-03-30T11:45:36;95036.53;;;23.52;23.48
10462;BME280;5278;42.656;23.374;2023-03-30T11:48:16;95033.97;;;23.07;23.96
10462;BME280;5278;42.656;23.374;2023-03-30T11:50:57;95031.91;;;22.64;24.39
10462;BME280;5278;42.656;23.374;2023-03-30T11:53:32;95032.69;;;22.48;24.61
10462;BME280;5278;42.656;23.374;2023-03-30T11:56:05;95027.78;;;22.11;25.16
10462;BME280;5278;42.656;23.374;2023-03-30T11:58:35;95011.72;;;22.29;24.63
10462;BME280;5278;42.656;23.374;2023-03-30T12:01:17;95015.19;;;22.75;24.49
10462;BME280;5278;42.656;23.374;2023-03-30T12:03:52;95018.88;;;22.17;24.87
10462;BME280;5278;42.656;23.374;2023-03-30T12:06:29;95014.06;;;21.74;25.36
10462;BME280;5278;42.656;23.374;2023-03-30T12:09:20;95005.94;;;21.29;25.98
10462;BME280;5278;42.656;23.374;2023-03-30T12:11:51;95007.03;;;20.52;26.51
10462;BME280;5278;42.656;23.374;2023-03-30T12:14:48;94996.22;;;20.53;26.77
10462;BME280;5278;42.656;23.374;2023-03-30T12:17:27;94996.03;;;21.60;25.58
10462;BME280;5278;42.656;23.374;2023-03-30T12:20:02;94984.31;;;21.56;25.40
10462;BME280;5278;42.656;23.374;2023-03-30T12:22:34;94988.09;;;20.67;26.65
10462;BME280;5278;42.656;23.374;2023-03-30T12:25:13;94976.72;;;20.78;26.65
10462;BME280;5278;42.656;23.374;2023-03-30T12:27:56;94975.28;;;21.17;26.22
10462;BME280;5278;42.656;23.374;2023-03-30T12:30:26;94976.75;;;21.01;26.44
10462;BME280;5278;42.656;23.374;2023-03-30T12:33:01;94966.78;;;21.15;26.06
10462;BME280;5278;42.656;23.374;2023-03-30T12:35:58;94959.97;;;21.30;25.58
10462;BME280;5278;42.656;23.374;2023-03-30T12:38:33;94957.44;;;21.35;25.69
10462;BME280;5278;42.656;23.374;2023-03-30T12:41:09;94948.47;;;21.36;25.32
10462;BME280;5278;42.656;23.374;2023-03-30T12:44:04;94952.38;;;21.22;25.83
10462;BME280;5278;42.656;23.374;2023-03-30T12:46:39;94949.19;;;20.97;26.24
10462;BME280;5278;42.656;23.374;2023-03-30T12:49:17;94943.19;;;20.78;26.30
10462;BME280;5278;42.656;23.374;2023-03-30T12:51:56;94939.84;;;20.59;26.61
10462;BME280;5278;42.656;23.374;2023-03-30T12:54:36;94932.88;;;20.12;27.41
10462;BME280;5278;42.656;23.374;2023-03-30T12:57:16;94939.59;;;20.08;27.49
10462;BME280;5278;42.656;23.374;2023-03-30T13:02:59;94929.03;;;20.08;27.67
10462;BME280;5278;42.656;23.374;2023-03-30T13:05:32;94925.13;;;19.99;27.62
10462;BME280;5278;42.656;23.374;2023-03-30T13:08:02;94924.84;;;19.59;27.96
10462;BME280;5278;42.656;23.374;2023-03-30T13:10:39;94929.19;;;19.35;28.04
10462;BME280;5278;42.656;23.374;2023-03-30T13:13:16;94927.00;;;19.32;28.41
10462;BME280;5278;42.656;23.374;2023-03-30T13:15:47;94908.09;;;18.99;28.79
10462;BME280;5278;42.656;23.374;2023-03-30T13:18:34;94915.47;;;18.72;29.08
10462;BME280;5278;42.656;23.374;2023-03-30T13:21:16;94913.25;;;18.69;29.08
10462;BME280;5278;42.656;23.374;2023-03-30T13:23:48;94905.28;;;18.57;29.04
10462;BME280;5278;42.656;23.374;2023-03-30T13:26:25;94918.09;;;18.47;29.50
10462;BME280;5278;42.656;23.374;2023-03-30T13:29:03;94896.94;;;18.35;29.75
10462;BME280;5278;42.656;23.374;2023-03-30T13:31:54;94893.19;;;18.25;30.05
10462;BME280;5278;42.656;23.374;2023-03-30T13:34:43;94888.94;;;18.24;30.35